Time;durP1;ratioP1;P1;durP2;ratioP2;P2;SDS_P1;SDS_P2;PMS_P1;PMS_P2;Temp;Humidity;BMP_temperature;BMP_pressure;BME280_temperature;BME280_humidity;BME280_pressure;Samples;Min_cycle;Max_cycle;Signal;HPM_P1;HPM_P2
2023/05/02 00:01:35;;;;;;;5.65;3.70;;;;;;;;;;4943441;29;20031;-90
2023/05/02 00:04:01;;;;;;;5.03;3.40;;;;;;;;;;4943873;29;20360;-91
2023/05/02 00:06:27;;;;;;;6.55;4.00;;;;;;;;;;4943527;29;20043;-90
2023/05/02 00:08:53;;;;;;;9.02;3.80;;;;;;;;;;4942129;29;20024;-91
2023/05/02 00:11:19;;;;;;;7.03;3.78;;;;;;;;;;4943223;29;20047;-91
2023/05/02 00:13:45;;;;;;;5.75;3.83;;;;;;;;;;4942318;29;20426;-92
2023/05/02 00:16:11;;;;;;;5.55;3.90;;;;;;;;;;4942709;29;20210;-91
2023/05/02 00:18:37;;;;;;;6.15;3.75;;;;;;;;;;4943049;29;20296;-92
2023/05/02 00:21:03;;;;;;;4.97;3.67;;;;;;;;;;4942752;29;20039;-92
2023/05/02 00:23:29;;;;;;;5.60;3.40;;;;;;;;;;4943066;29;20315;-92
2023/05/02 00:25:56;;;;;;;5.70;3.70;;;;;;;;;;4942627;29;20410;-92
2023/05/02 00:28:22;;;;;;;6.20;4.00;;;;;;;;;;4943154;29;20031;-91
2023/05/02 00:30:48;;;;;;;9.13;4.47;;;;;;;;;;4942911;29;20415;-91
2023/05/02 00:33:14;;;;;;;5.85;3.72;;;;;;;;;;4942434;29;20415;-92
2023/05/02 00:35:40;;;;;;;6.45;3.55;;;;;;;;;;4941683;29;20032;-91
2023/05/02 00:38:07;;;;;;;10.95;3.53;;;;;;;;;;4942526;29;20035;-92
2023/05/02 00:40:44;;;;;;;8.05;4.07;;;;;;;;;;4942823;29;20311;-93
2023/05/02 00:43:10;;;;;;;7.07;4.20;;;;;;;;;;4942840;29;20027;-92
2023/05/02 00:45:39;;;;;;;7.60;3.65;;;;;;;;;;4943020;29;20039;-92
2023/05/02 00:48:05;;;;;;;7.95;3.90;;;;;;;;;;4942305;29;20031;-93
2023/05/02 00:50:32;;;;;;;7.10;4.13;;;;;;;;;;4942217;29;20043;-94
2023/05/02 00:53:00;;;;;;;10.60;4.40;;;;;;;;;;4942616;29;20034;-90
2023/05/02 00:55:27;;;;;;;7.78;4.13;;;;;;;;;;4942748;29;20028;-94
2023/05/02 00:57:53;;;;;;;5.70;3.80;;;;;;;;;;4940933;29;20034;-93
2023/05/02 01:00:19;;;;;;;4.85;3.50;;;;;;;;;;4941129;29;20027;-92
2023/05/02 01:02:45;;;;;;;6.28;3.83;;;;;;;;;;4942503;29;20031;-91
2023/05/02 01:05:18;;;;;;;8.40;3.10;;;;;;;;;;4942726;29;20031;-91
2023/05/02 01:10:52;;;;;;;6.43;4.05;;;;;;;;;;4942300;29;20026;-91
2023/05/02 01:13:23;;;;;;;9.60;3.30;;;;;;;;;;4942175;29;20036;-91
2023/05/02 01:15:51;;;;;;;7.18;3.38;;;;;;;;;;4942052;29;20032;-91
2023/05/02 01:18:20;;;;;;;5.75;3.20;;;;;;;;;;4941144;29;20326;-92
2023/05/02 01:20:47;;;;;;;6.40;4.10;;;;;;;;;;4941757;29;20039;-90
2023/05/02 01:23:51;;;;;;;7.72;3.50;;;;;;;;;;4942012;29;20111;-91
2023/05/02 01:26:34;;;;;;;6.32;3.50;;;;;;;;;;4922653;29;20044;-91
2023/05/02 01:29:01;;;;;;;15.90;3.45;;;;;;;;;;4923110;29;20040;-92
2023/05/02 01:31:35;;;;;;;24.63;4.40;;;;;;;;;;4922902;29;20080;-91
2023/05/02 01:34:02;;;;;;;5.53;3.42;;;;;;;;;;4922483;29;20029;-92
2023/05/02 01:39:51;;;;;;;7.38;4.28;;;;;;;;;;4922799;29;20429;-91
2023/05/02 01:42:17;;;;;;;5.30;3.42;;;;;;;;;;4922027;29;20039;-90
2023/05/02 01:44:44;;;;;;;8.20;3.63;;;;;;;;;;4908904;29;20056;-91
2023/05/02 01:47:11;;;;;;;7.15;3.65;;;;;;;;;;4937230;29;20095;-93
2023/05/02 01:49:38;;;;;;;5.93;3.35;;;;;;;;;;4922367;29;20035;-91
2023/05/02 01:55:10;;;;;;;7.57;3.30;;;;;;;;;;4922531;29;20087;-91
2023/05/02 01:57:38;;;;;;;5.35;3.83;;;;;;;;;;4922636;29;20071;-91
2023/05/02 02:00:05;;;;;;;8.75;4.25;;;;;;;;;;4922078;29;20032;-90
2023/05/02 02:02:33;;;;;;;8.10;3.58;;;;;;;;;;4937235;29;20036;-91
2023/05/02 02:05:00;;;;;;;9.20;3.80;;;;;;;;;;4922127;29;20036;-91
2023/05/02 02:10:31;;;;;;;7.97;3.30;;;;;;;;;;4922379;29;20150;-90
2023/05/02 02:13:05;;;;;;;5.30;3.38;;;;;;;;;;4922400;29;20029;-91
2023/05/02 02:15:35;;;;;;;14.48;3.47;;;;;;;;;;4928618;29;20043;-91
2023/05/02 02:18:03;;;;;;;6.60;3.22;;;;;;;;;;4936621;29;20076;-88
2023/05/02 02:20:31;;;;;;;9.15;3.42;;;;;;;;;;4936598;29;20092;-92
2023/05/02 02:23:16;;;;;;;9.60;3.47;;;;;;;;;;4933119;29;20335;-89
2023/05/02 02:25:43;;;;;;;7.07;3.47;;;;;;;;;;4936664;29;20083;-89
2023/05/02 02:28:09;;;;;;;6.75;3.38;;;;;;;;;;4921532;29;20043;-89
2023/05/02 02:30:35;;;;;;;8.90;3.90;;;;;;;;;;4936577;29;20036;-90
2023/05/02 02:33:01;;;;;;;5.85;3.50;;;;;;;;;;4921993;29;20032;-90
2023/05/02 02:35:35;;;;;;;4.50;3.13;;;;;;;;;;4921670;29;20036;-91
2023/05/02 02:38:13;;;;;;;5.53;3.42;;;;;;;;;;4920275;29;20074;-90
2023/05/02 02:41:01;;;;;;;11.20;3.15;;;;;;;;;;4921663;29;20151;-91
2023/05/02 02:43:37;;;;;;;8.45;3.90;;;;;;;;;;4936154;29;20032;-90
2023/05/02 02:46:16;;;;;;;4.60;3.60;;;;;;;;;;4921123;29;20027;-91
2023/05/02 02:48:45;;;;;;;10.27;3.38;;;;;;;;;;4921360;29;20059;-90
2023/05/02 02:51:14;;;;;;;5.55;3.60;;;;;;;;;;4936190;29;20040;-93
2023/05/02 02:53:53;;;;;;;5.72;3.75;;;;;;;;;;4923915;29;20028;-92
2023/05/02 02:56:22;;;;;;;7.60;3.63;;;;;;;;;;4936318;29;20035;-91
2023/05/02 02:59:01;;;;;;;4.72;3.28;;;;;;;;;;4921635;29;20012;-92
2023/05/02 03:01:30;;;;;;;5.90;3.30;;;;;;;;;;4921131;29;20419;-92
2023/05/02 03:03:56;;;;;;;6.30;3.55;;;;;;;;;;4921430;29;20148;-89
2023/05/02 03:06:23;;;;;;;8.18;3.72;;;;;;;;;;4921151;29;20051;-89
2023/05/02 03:08:49;;;;;;;6.70;3.55;;;;;;;;;;4921328;29;20032;-89
2023/05/02 03:11:15;;;;;;;6.72;3.47;;;;;;;;;;4921358;29;20028;-89
2023/05/02 03:13:42;;;;;;;8.15;3.63;;;;;;;;;;4921566;29;20043;-89
2023/05/02 03:16:08;;;;;;;7.18;3.13;;;;;;;;;;4921154;29;20063;-89
2023/05/02 03:18:34;;;;;;;7.25;3.65;;;;;;;;;;4935970;29;20060;-89
2023/05/02 03:21:01;;;;;;;6.70;3.22;;;;;;;;;;4920612;29;20032;-90
2023/05/02 03:26:30;;;;;;;5.40;3.20;;;;;;;;;;4942369;29;20474;-90
2023/05/02 03:28:56;;;;;;;7.25;3.20;;;;;;;;;;4942867;29;20058;-91
2023/05/02 03:31:22;;;;;;;6.75;3.60;;;;;;;;;;4932078;29;20040;-90
2023/05/02 03:33:48;;;;;;;5.47;3.03;;;;;;;;;;4944318;29;20034;-89
2023/05/02 03:36:15;;;;;;;7.00;3.30;;;;;;;;;;4943697;29;20027;-91
2023/05/02 03:38:41;;;;;;;9.35;4.13;;;;;;;;;;4943979;29;20028;-84
2023/05/02 03:41:07;;;;;;;8.40;3.60;;;;;;;;;;4943683;29;20368;-91
2023/05/02 03:43:33;;;;;;;8.00;3.55;;;;;;;;;;4942819;29;20020;-92
2023/05/02 03:46:05;;;;;;;6.35;3.42;;;;;;;;;;4943791;29;20047;-91
2023/05/02 03:48:31;;;;;;;6.57;3.30;;;;;;;;;;4946265;29;20453;-92
2023/05/02 03:50:57;;;;;;;6.53;3.42;;;;;;;;;;4943826;29;20036;-89
2023/05/02 03:56:27;;;;;;;7.78;3.50;;;;;;;;;;4962753;29;20164;-88
2023/05/02 03:58:53;;;;;;;5.38;3.30;;;;;;;;;;4939757;29;20071;-88
2023/05/02 04:01:20;;;;;;;7.25;3.28;;;;;;;;;;4943577;29;20483;-89
2023/05/02 04:03:46;;;;;;;8.55;3.40;;;;;;;;;;4943639;29;20035;-89
2023/05/02 04:06:12;;;;;;;5.13;3.35;;;;;;;;;;4942679;29;20059;-91
2023/05/02 04:08:38;;;;;;;7.85;2.90;;;;;;;;;;4943202;29;20031;-89
2023/05/02 04:11:05;;;;;;;5.53;3.40;;;;;;;;;;4942565;29;20027;-89
2023/05/02 04:13:31;;;;;;;7.88;3.40;;;;;;;;;;4943362;29;20024;-90
2023/05/02 04:15:57;;;;;;;7.68;3.85;;;;;;;;;;4943209;29;20023;-90
2023/05/02 04:18:23;;;;;;;9.50;5.15;;;;;;;;;;4943432;29;20031;-90
2023/05/02 04:20:49;;;;;;;4.63;3.50;;;;;;;;;;4940762;29;20032;-90
2023/05/02 04:23:16;;;;;;;7.78;3.90;;;;;;;;;;4962405;29;20061;-90
2023/05/02 04:25:50;;;;;;;7.00;3.70;;;;;;;;;;4945307;29;20379;-91
2023/05/02 04:28:16;;;;;;;5.43;4.18;;;;;;;;;;4944842;29;20054;-88
2023/05/02 04:30:42;;;;;;;6.03;4.22;;;;;;;;;;4945381;29;20059;-89
2023/05/02 04:33:08;;;;;;;8.38;3.65;;;;;;;;;;4961926;29;20037;-89
2023/05/02 04:35:34;;;;;;;7.40;4.20;;;;;;;;;;4945154;29;20069;-90
2023/05/02 04:38:01;;;;;;;4.82;4.00;;;;;;;;;;4962115;29;20023;-89
2023/05/02 04:40:27;;;;;;;4.93;3.83;;;;;;;;;;4962090;29;20038;-90
2023/05/02 04:42:53;;;;;;;9.07;3.55;;;;;;;;;;4944857;29;20453;-89
2023/05/02 04:45:19;;;;;;;9.38;3.47;;;;;;;;;;4945048;29;20441;-90
2023/05/02 04:47:45;;;;;;;8.30;3.22;;;;;;;;;;4962222;29;20032;-91
2023/05/02 04:50:11;;;;;;;9.57;3.78;;;;;;;;;;4932377;29;20038;-90
2023/05/02 04:53:05;;;;;;;8.57;3.97;;;;;;;;;;4941862;29;20040;-90
2023/05/02 04:55:31;;;;;;;5.05;3.20;;;;;;;;;;4941778;29;20028;-90
2023/05/02 04:57:57;;;;;;;7.05;3.35;;;;;;;;;;4941707;29;20118;-89
2023/05/02 05:00:23;;;;;;;6.35;3.13;;;;;;;;;;4942451;29;20028;-92
2023/05/02 05:02:49;;;;;;;7.05;3.45;;;;;;;;;;4941590;29;20318;-92
2023/05/02 05:05:15;;;;;;;14.77;3.33;;;;;;;;;;4952219;29;20046;-92
2023/05/02 05:07:41;;;;;;;5.50;3.20;;;;;;;;;;4944739;29;20067;-91
2023/05/02 05:10:10;;;;;;;7.25;3.50;;;;;;;;;;4944994;29;20031;-91
2023/05/02 05:12:36;;;;;;;4.13;2.95;;;;;;;;;;4961533;29;20042;-90
2023/05/02 05:15:02;;;;;;;4.85;3.53;;;;;;;;;;4961387;29;20061;-91
2023/05/02 05:17:28;;;;;;;5.72;3.20;;;;;;;;;;4961808;29;20023;-90
2023/05/02 05:19:54;;;;;;;6.88;3.00;;;;;;;;;;4935658;29;20031;-89
2023/05/02 05:25:26;;;;;;;5.38;3.70;;;;;;;;;;4923498;29;20059;-93
2023/05/02 05:27:54;;;;;;;6.20;3.38;;;;;;;;;;4922986;29;20127;-93
2023/05/02 05:30:20;;;;;;;6.60;3.42;;;;;;;;;;4923378;29;20075;-91
2023/05/02 05:32:46;;;;;;;6.50;3.33;;;;;;;;;;4937861;29;20407;-91
2023/05/02 05:35:12;;;;;;;5.32;3.03;;;;;;;;;;4937343;29;20051;-92
2023/05/02 05:40:41;;;;;;;3.90;2.95;;;;;;;;;;4955509;29;20354;-92
2023/05/02 05:43:08;;;;;;;8.98;3.40;;;;;;;;;;4961075;29;20031;-92
2023/05/02 05:45:34;;;;;;;6.30;3.40;;;;;;;;;;4942382;28;20033;-93
2023/05/02 05:48:00;;;;;;;5.47;3.30;;;;;;;;;;4942999;29;20047;-90
2023/05/02 05:50:26;;;;;;;6.15;3.42;;;;;;;;;;4941731;29;20036;-90
2023/05/02 05:53:10;;;;;;;5.00;3.22;;;;;;;;;;4941885;29;20043;-90
2023/05/02 05:55:37;;;;;;;6.60;3.30;;;;;;;;;;4940426;29;20028;-91
2023/05/02 05:58:03;;;;;;;6.40;3.10;;;;;;;;;;4941833;29;20024;-91
2023/05/02 06:00:29;;;;;;;4.05;3.30;;;;;;;;;;4941518;29;20304;-92
2023/05/02 06:02:57;;;;;;;6.00;3.10;;;;;;;;;;4940460;29;20027;-91
2023/05/02 06:05:23;;;;;;;9.38;3.40;;;;;;;;;;4941669;29;20035;-91
2023/05/02 06:07:49;;;;;;;4.15;3.20;;;;;;;;;;4941635;29;20123;-91
2023/05/02 06:10:15;;;;;;;7.85;3.10;;;;;;;;;;4941539;29;20023;-92
2023/05/02 06:12:41;;;;;;;12.60;3.75;;;;;;;;;;4941247;29;20027;-92
2023/05/02 06:15:07;;;;;;;7.07;3.58;;;;;;;;;;4941534;29;20042;-93
2023/05/02 06:17:33;;;;;;;13.50;3.10;;;;;;;;;;4941212;29;20032;-91
2023/05/02 06:19:59;;;;;;;9.20;3.15;;;;;;;;;;4952990;29;20436;-91
2023/05/02 06:25:31;;;;;;;5.82;3.20;;;;;;;;;;4943310;29;20043;-93
2023/05/02 06:27:57;;;;;;;6.28;3.05;;;;;;;;;;4941067;29;20051;-92
2023/05/02 06:30:23;;;;;;;6.35;3.38;;;;;;;;;;4940508;29;20445;-92
2023/05/02 06:32:49;;;;;;;15.25;7.93;;;;;;;;;;4943935;29;20039;-91
2023/05/02 06:35:15;;;;;;;7.90;3.60;;;;;;;;;;4941055;29;20031;-91
2023/05/02 06:40:58;;;;;;;11.27;4.05;;;;;;;;;;4936199;29;20034;-89
2023/05/02 06:43:25;;;;;;;8.68;3.42;;;;;;;;;;4939736;29;20028;-89
2023/05/02 06:45:55;;;;;;;9.85;4.28;;;;;;;;;;4939780;29;20035;-89
2023/05/02 06:48:21;;;;;;;15.00;4.47;;;;;;;;;;4940673;29;20032;-89
2023/05/02 06:50:47;;;;;;;5.65;3.72;;;;;;;;;;4939659;29;20035;-90
2023/05/02 06:53:14;;;;;;;10.43;3.90;;;;;;;;;;4939527;29;20391;-89
2023/05/02 06:55:40;;;;;;;11.00;3.22;;;;;;;;;;4939513;29;20032;-89
2023/05/02 06:58:06;;;;;;;11.98;4.43;;;;;;;;;;4939607;29;20020;-89
2023/05/02 07:00:32;;;;;;;5.82;4.60;;;;;;;;;;4939001;29;20071;-89
2023/05/02 07:02:58;;;;;;;11.65;3.63;;;;;;;;;;4940525;29;20150;-89
2023/05/02 07:05:24;;;;;;;6.78;3.63;;;;;;;;;;4940427;29;20024;-90
2023/05/02 07:07:50;;;;;;;11.98;3.17;;;;;;;;;;4940203;29;20485;-91
2023/05/02 07:10:16;;;;;;;19.20;3.40;;;;;;;;;;4939432;29;20478;-90
2023/05/02 07:12:42;;;;;;;9.93;2.92;;;;;;;;;;4939523;29;20128;-91
2023/05/02 07:15:09;;;;;;;11.48;3.60;;;;;;;;;;4940579;29;20028;-90
2023/05/02 07:17:35;;;;;;;14.82;3.22;;;;;;;;;;4940443;29;20032;-91
2023/05/02 07:20:01;;;;;;;17.30;3.45;;;;;;;;;;4956682;29;20038;-88
2023/05/02 07:22:27;;;;;;;16.27;2.90;;;;;;;;;;4942078;29;20122;-89
2023/05/02 07:25:00;;;;;;;54.33;4.60;;;;;;;;;;4942784;29;20112;-92
2023/05/02 07:27:27;;;;;;;21.02;5.50;;;;;;;;;;4942360;29;20052;-88
2023/05/02 07:29:53;;;;;;;11.20;3.42;;;;;;;;;;4942504;29;20094;-88
2023/05/02 07:32:25;;;;;;;16.25;5.18;;;;;;;;;;4956326;29;20134;-87
2023/05/02 07:34:55;;;;;;;15.57;4.53;;;;;;;;;;4958490;29;20035;-87
2023/05/02 07:37:48;;;;;;;12.68;4.88;;;;;;;;;;4942810;29;20027;-89
2023/05/02 07:40:15;;;;;;;16.17;6.10;;;;;;;;;;4959024;29;20070;-87
2023/05/02 07:42:41;;;;;;;21.17;3.85;;;;;;;;;;4959357;29;20039;-87
2023/05/02 07:45:08;;;;;;;22.40;4.78;;;;;;;;;;4953723;29;20107;-87
2023/05/02 07:47:34;;;;;;;12.48;4.22;;;;;;;;;;4939957;29;20338;-89
2023/05/02 07:50:00;;;;;;;12.60;3.30;;;;;;;;;;4940999;29;20038;-90
2023/05/02 07:52:26;;;;;;;17.35;3.35;;;;;;;;;;4950894;29;20028;-88
2023/05/02 07:54:53;;;;;;;11.48;3.80;;;;;;;;;;4940216;29;20028;-87
2023/05/02 07:57:19;;;;;;;17.20;3.97;;;;;;;;;;4939863;29;20112;-88
2023/05/02 07:59:46;;;;;;;37.90;4.47;;;;;;;;;;4939171;29;20023;-89
2023/05/02 08:02:12;;;;;;;14.85;3.70;;;;;;;;;;4939805;29;20027;-89
2023/05/02 08:04:39;;;;;;;23.85;3.83;;;;;;;;;;4939976;29;20105;-87
2023/05/02 08:07:05;;;;;;;18.40;4.32;;;;;;;;;;4945823;29;20031;-91
2023/05/02 08:10:03;;;;;;;15.18;3.22;;;;;;;;;;4943085;29;20075;-90
2023/05/02 08:12:29;;;;;;;15.20;2.90;;;;;;;;;;4954066;29;20318;-94
2023/05/02 08:14:55;;;;;;;11.93;2.88;;;;;;;;;;4955966;29;20031;-91
2023/05/02 08:17:21;;;;;;;11.18;2.90;;;;;;;;;;4943440;29;20060;-93
2023/05/02 08:19:48;;;;;;;11.55;3.30;;;;;;;;;;4943421;29;20411;-92
2023/05/02 08:22:14;;;;;;;6.88;3.28;;;;;;;;;;4949599;29;20114;-91
2023/05/02 08:24:40;;;;;;;10.05;2.90;;;;;;;;;;4948537;29;20432;-94
2023/05/02 08:27:06;;;;;;;13.15;2.83;;;;;;;;;;4942330;29;20494;-92
2023/05/02 08:29:32;;;;;;;10.85;2.78;;;;;;;;;;4939159;29;20043;-92
2023/05/02 08:31:58;;;;;;;23.48;3.50;;;;;;;;;;4956070;29;20027;-93
2023/05/02 08:34:24;;;;;;;27.67;3.38;;;;;;;;;;4934538;29;20326;-92
2023/05/02 08:36:51;;;;;;;14.52;3.05;;;;;;;;;;4940779;29;20485;-92
2023/05/02 08:42:21;;;;;;;21.25;2.90;;;;;;;;;;4942212;29;20322;-91
2023/05/02 08:44:48;;;;;;;27.27;3.28;;;;;;;;;;4946592;29;20157;-86
2023/05/02 08:47:15;;;;;;;7.63;3.08;;;;;;;;;;4941591;29;20423;-85
2023/05/02 08:49:42;;;;;;;28.60;3.55;;;;;;;;;;4941584;29;20050;-84
2023/05/02 08:52:11;;;;;;;25.63;4.85;;;;;;;;;;4941516;29;20070;-84
2023/05/02 08:54:37;;;;;;;8.18;2.70;;;;;;;;;;4951766;29;20090;-84
2023/05/02 08:57:04;;;;;;;12.82;2.70;;;;;;;;;;4959719;29;20035;-85
2023/05/02 08:59:30;;;;;;;26.75;3.15;;;;;;;;;;4960782;29;20063;-85
2023/05/02 09:02:05;;;;;;;27.27;3.75;;;;;;;;;;4943338;29;20319;-83
2023/05/02 09:04:32;;;;;;;27.05;3.22;;;;;;;;;;4943336;29;20426;-83
2023/05/02 09:06:58;;;;;;;17.50;3.13;;;;;;;;;;4943421;29;20027;-84
2023/05/02 09:09:24;;;;;;;15.88;3.60;;;;;;;;;;4960534;29;20045;-84
2023/05/02 09:11:51;;;;;;;21.00;4.35;;;;;;;;;;4960313;29;20419;-84
2023/05/02 09:14:17;;;;;;;12.05;3.00;;;;;;;;;;4960254;29;20027;-84
2023/05/02 09:16:44;;;;;;;22.77;3.38;;;;;;;;;;4960466;29;20366;-84
2023/05/02 09:19:10;;;;;;;12.73;3.25;;;;;;;;;;4943250;29;20406;-84
2023/05/02 09:21:38;;;;;;;9.48;3.65;;;;;;;;;;4942073;29;20130;-84
2023/05/02 09:24:18;;;;;;;28.95;4.35;;;;;;;;;;4943218;29;20126;-84
2023/05/02 09:26:57;;;;;;;18.27;3.42;;;;;;;;;;4917710;29;1243596;-84
2023/05/02 09:29:23;;;;;;;8.52;3.08;;;;;;;;;;4961019;29;20102;-85
2023/05/02 09:31:50;;;;;;;26.25;3.80;;;;;;;;;;4960878;29;20028;-84
2023/05/02 09:34:16;;;;;;;18.05;3.92;;;;;;;;;;4960729;29;20026;-84
2023/05/02 09:36:46;;;;;;;8.63;3.08;;;;;;;;;;4960813;29;20059;-84
2023/05/02 09:39:17;;;;;;;10.77;2.90;;;;;;;;;;4943216;29;20449;-84
2023/05/02 09:41:44;;;;;;;12.48;2.53;;;;;;;;;;4960824;29;20038;-85
2023/05/02 09:44:20;;;;;;;21.38;4.03;;;;;;;;;;4960648;29;20023;-84
2023/05/02 09:46:50;;;;;;;36.58;4.32;;;;;;;;;;4943232;29;20051;-84
2023/05/02 09:49:19;;;;;;;34.15;3.58;;;;;;;;;;4960826;29;20318;-84
2023/05/02 09:51:46;;;;;;;7.82;2.90;;;;;;;;;;4960638;29;20027;-84
2023/05/02 09:54:13;;;;;;;34.53;3.97;;;;;;;;;;4960425;29;20444;-84
2023/05/02 09:56:53;;;;;;;11.93;2.63;;;;;;;;;;4960604;29;20042;-85
2023/05/02 09:59:19;;;;;;;12.07;2.97;;;;;;;;;;4960427;29;20019;-83
2023/05/02 10:01:45;;;;;;;5.97;2.70;;;;;;;;;;4943755;29;20370;-84
2023/05/02 10:04:15;;;;;;;7.03;3.13;;;;;;;;;;4960426;29;20020;-84
2023/05/02 10:06:43;;;;;;;30.13;3.83;;;;;;;;;;4960436;29;20034;-84
2023/05/02 10:09:10;;;;;;;16.88;3.40;;;;;;;;;;4960146;29;20118;-84
2023/05/02 10:11:39;;;;;;;27.05;3.92;;;;;;;;;;4943303;29;20486;-85
2023/05/02 10:14:09;;;;;;;16.35;4.00;;;;;;;;;;4960187;29;20114;-84
2023/05/02 10:16:36;;;;;;;36.15;3.53;;;;;;;;;;4943152;29;20114;-86
2023/05/02 10:19:17;;;;;;;16.65;3.05;;;;;;;;;;4960275;29;20085;-85
2023/05/02 10:21:43;;;;;;;13.40;3.50;;;;;;;;;;4960511;29;20054;-91
2023/05/02 10:24:09;;;;;;;7.18;2.80;;;;;;;;;;4959813;29;20059;-91
2023/05/02 10:26:35;;;;;;;8.90;3.20;;;;;;;;;;4960046;29;20446;-88
2023/05/02 10:29:02;;;;;;;14.25;3.20;;;;;;;;;;4959821;29;20361;-81
2023/05/02 10:31:31;;;;;;;11.38;2.70;;;;;;;;;;4946163;29;20027;-83
2023/05/02 10:33:57;;;;;;;18.33;3.00;;;;;;;;;;4952993;29;20024;-84
2023/05/02 10:36:23;;;;;;;6.78;3.05;;;;;;;;;;4928616;29;20114;-83
2023/05/02 10:38:50;;;;;;;10.98;3.28;;;;;;;;;;4938697;29;20039;-83
2023/05/02 10:41:21;;;;;;;5.20;3.13;;;;;;;;;;4943377;29;20032;-83
2023/05/02 10:43:48;;;;;;;8.68;3.00;;;;;;;;;;4945681;29;20039;-91
2023/05/02 10:46:34;;;;;;;10.75;2.60;;;;;;;;;;4942258;29;20397;-85
2023/05/02 10:49:01;;;;;;;8.40;3.13;;;;;;;;;;4926366;29;20034;-85
2023/05/02 10:51:30;;;;;;;7.70;2.80;;;;;;;;;;4942147;29;20402;-85
2023/05/02 10:54:16;;;;;;;7.57;3.00;;;;;;;;;;4937690;29;20031;-90
2023/05/02 10:57:02;;;;;;;5.13;2.63;;;;;;;;;;4938970;29;20044;-84
2023/05/02 10:59:29;;;;;;;4.47;2.75;;;;;;;;;;4904733;29;20036;-88
2023/05/02 11:01:55;;;;;;;7.65;2.97;;;;;;;;;;4938829;29;20072;-87
2023/05/02 11:04:21;;;;;;;7.90;3.10;;;;;;;;;;4939622;29;20040;-87
2023/05/02 11:06:59;;;;;;;5.18;2.63;;;;;;;;;;4935350;29;20335;-87
2023/05/02 11:09:28;;;;;;;9.85;2.60;;;;;;;;;;4942049;29;20051;-89
2023/05/02 11:11:56;;;;;;;7.75;2.83;;;;;;;;;;4941035;29;20046;-90
2023/05/02 11:14:25;;;;;;;8.27;2.83;;;;;;;;;;4959370;29;20019;-90
2023/05/02 11:17:00;;;;;;;6.53;3.47;;;;;;;;;;4958513;29;20058;-88
2023/05/02 11:19:27;;;;;;;14.27;2.70;;;;;;;;;;4940357;29;20055;-85
2023/05/02 11:21:56;;;;;;;9.88;2.70;;;;;;;;;;4940289;29;20107;-89
2023/05/02 11:24:38;;;;;;;8.52;2.30;;;;;;;;;;4947473;29;20032;-87
2023/05/02 11:27:23;;;;;;;9.45;3.20;;;;;;;;;;4942051;29;20039;-86
2023/05/02 11:29:52;;;;;;;7.38;2.53;;;;;;;;;;4956966;29;20095;-82
2023/05/02 11:32:18;;;;;;;8.80;3.78;;;;;;;;;;4957313;29;20028;-82
2023/05/02 11:34:44;;;;;;;10.02;2.75;;;;;;;;;;4940816;29;20036;-82
2023/05/02 11:37:14;;;;;;;4.20;2.50;;;;;;;;;;4940752;29;20514;-82
2023/05/02 11:39:42;;;;;;;4.57;2.58;;;;;;;;;;4938583;29;20023;-82
2023/05/02 11:42:08;;;;;;;10.30;3.13;;;;;;;;;;4946240;29;20015;-81
2023/05/02 11:44:52;;;;;;;5.50;2.78;;;;;;;;;;4944421;29;20023;-87
2023/05/02 11:47:18;;;;;;;3.38;2.38;;;;;;;;;;4935667;29;20022;-88
2023/05/02 11:49:44;;;;;;;8.10;2.72;;;;;;;;;;4942878;29;20095;-85
2023/05/02 11:52:10;;;;;;;9.27;2.78;;;;;;;;;;4944436;29;20059;-88
2023/05/02 11:57:42;;;;;;;8.00;2.70;;;;;;;;;;4944079;29;20034;-88
2023/05/02 12:00:10;;;;;;;4.35;2.47;;;;;;;;;;4955207;29;20023;-91
2023/05/02 12:02:40;;;;;;;5.05;2.60;;;;;;;;;;4917774;29;20079;-92
2023/05/02 12:05:07;;;;;;;9.63;2.70;;;;;;;;;;4955847;29;20032;-93
2023/05/02 12:07:40;;;;;;;8.85;2.50;;;;;;;;;;4942648;29;20036;-93
2023/05/02 12:13:10;;;;;;;5.60;2.45;;;;;;;;;;4943622;29;20038;-92
2023/05/02 12:15:36;;;;;;;9.82;2.92;;;;;;;;;;4942165;29;20038;-92
2023/05/02 12:18:03;;;;;;;6.38;2.75;;;;;;;;;;4932775;29;20039;-92
2023/05/02 12:20:29;;;;;;;10.43;2.30;;;;;;;;;;4945228;29;20036;-92
2023/05/02 12:26:24;;;;;;;6.55;2.67;;;;;;;;;;4942772;29;20103;-92
2023/05/02 12:28:51;;;;;;;9.30;2.60;;;;;;;;;;4943644;29;20031;-93
2023/05/02 12:31:23;;;;;;;5.00;2.45;;;;;;;;;;4942260;29;20028;-93
2023/05/02 12:33:51;;;;;;;3.97;2.70;;;;;;;;;;4942171;29;20107;-92
2023/05/02 12:36:17;;;;;;;8.57;2.50;;;;;;;;;;4929062;29;20028;-92
2023/05/02 12:39:04;;;;;;;5.93;2.15;;;;;;;;;;4943361;29;20103;-92
2023/05/02 12:41:35;;;;;;;12.98;2.65;;;;;;;;;;4942731;29;20026;-92
2023/05/02 12:44:02;;;;;;;6.20;2.22;;;;;;;;;;4941831;29;20032;-91
2023/05/02 12:46:30;;;;;;;7.43;2.20;;;;;;;;;;4942920;29;20036;-90
2023/05/02 12:49:08;;;;;;;6.43;1.90;;;;;;;;;;4936976;29;20039;-92
2023/05/02 12:51:35;;;;;;;3.60;1.70;;;;;;;;;;4962500;29;20036;-91
2023/05/02 12:57:05;;;;;;;8.52;2.08;;;;;;;;;;4960333;28;20031;-92
2023/05/02 12:59:33;;;;;;;6.95;2.00;;;;;;;;;;4937724;29;20032;-92
2023/05/02 13:02:00;;;;;;;5.00;1.90;;;;;;;;;;4944816;29;20160;-91
2023/05/02 13:04:37;;;;;;;5.70;1.80;;;;;;;;;;4941016;29;20413;-92
2023/05/02 13:07:04;;;;;;;12.63;2.28;;;;;;;;;;4944383;29;20325;-92
2023/05/02 13:09:30;;;;;;;4.45;2.15;;;;;;;;;;4961803;29;20031;-92
2023/05/02 13:11:57;;;;;;;2.75;1.88;;;;;;;;;;4945026;29;20034;-92
2023/05/02 13:14:24;;;;;;;3.53;2.47;;;;;;;;;;4961904;29;20026;-92
2023/05/02 13:16:53;;;;;;;4.68;2.15;;;;;;;;;;4928370;29;20123;-92
2023/05/02 13:19:20;;;;;;;6.15;2.50;;;;;;;;;;4935073;29;20027;-93
2023/05/02 13:21:46;;;;;;;6.03;1.88;;;;;;;;;;4940811;29;20419;-93
2023/05/02 13:24:13;;;;;;;5.32;2.40;;;;;;;;;;4940868;29;20135;-93
2023/05/02 13:26:40;;;;;;;6.40;2.30;;;;;;;;;;4942079;29;20459;-93
2023/05/02 13:29:10;;;;;;;10.90;2.70;;;;;;;;;;4942480;29;20036;-92
2023/05/02 13:31:36;;;;;;;5.05;2.40;;;;;;;;;;4941220;29;20127;-93
2023/05/02 13:34:03;;;;;;;5.35;2.13;;;;;;;;;;4941203;29;20415;-93
2023/05/02 13:36:29;;;;;;;3.65;2.40;;;;;;;;;;4942192;29;20032;-92
2023/05/02 13:38:56;;;;;;;9.15;2.15;;;;;;;;;;4944635;29;20051;-89
2023/05/02 13:41:24;;;;;;;2.90;1.50;;;;;;;;;;4940108;29;20031;-84
2023/05/02 13:43:50;;;;;;;2.95;1.65;;;;;;;;;;4941677;29;20028;-82
2023/05/02 13:46:16;;;;;;;8.10;2.50;;;;;;;;;;4940914;29;20034;-94
2023/05/02 13:48:43;;;;;;;2.83;1.88;;;;;;;;;;4941593;29;20067;-92
2023/05/02 13:51:09;;;;;;;3.33;1.85;;;;;;;;;;4941980;29;20060;-93
2023/05/02 13:53:35;;;;;;;2.55;1.90;;;;;;;;;;4941955;29;20036;-92
2023/05/02 13:56:01;;;;;;;4.28;1.60;;;;;;;;;;4941015;29;20028;-92
2023/05/02 13:58:27;;;;;;;5.53;1.85;;;;;;;;;;4940696;29;20028;-92
2023/05/02 14:00:53;;;;;;;2.25;1.90;;;;;;;;;;4945398;29;20023;-92
2023/05/02 14:03:19;;;;;;;3.58;2.08;;;;;;;;;;4927911;29;20114;-91
2023/05/02 14:05:45;;;;;;;2.00;1.80;;;;;;;;;;4958606;29;20039;-88
2023/05/02 14:08:11;;;;;;;5.22;2.38;;;;;;;;;;4956542;28;20360;-91
2023/05/02 14:10:38;;;;;;;7.95;2.13;;;;;;;;;;4950774;29;20039;-92
2023/05/02 14:13:04;;;;;;;3.90;2.00;;;;;;;;;;4939979;29;20358;-86
2023/05/02 14:15:30;;;;;;;9.23;2.50;;;;;;;;;;4943054;29;20036;-79
2023/05/02 14:17:56;;;;;;;4.25;2.30;;;;;;;;;;4958132;29;20406;-78
2023/05/02 14:20:23;;;;;;;3.05;2.40;;;;;;;;;;4955976;29;20028;-78
2023/05/02 14:22:49;;;;;;;6.60;2.92;;;;;;;;;;4952123;29;20106;-80
2023/05/02 14:25:18;;;;;;;4.75;2.50;;;;;;;;;;4942462;29;20031;-80
2023/05/02 14:27:44;;;;;;;2.33;2.00;;;;;;;;;;4942556;29;20055;-80
2023/05/02 14:30:11;;;;;;;4.25;2.72;;;;;;;;;;4946522;29;20028;-83
2023/05/02 14:32:37;;;;;;;3.72;2.20;;;;;;;;;;4944332;29;20110;-80
2023/05/02 14:35:03;;;;;;;3.33;2.15;;;;;;;;;;4959066;29;20027;-80
2023/05/02 14:37:29;;;;;;;5.25;2.20;;;;;;;;;;4959526;29;20061;-80
2023/05/02 14:39:55;;;;;;;6.35;2.40;;;;;;;;;;4951672;29;20031;-80
2023/05/02 14:42:24;;;;;;;3.17;2.50;;;;;;;;;;4959493;29;20078;-80
2023/05/02 14:44:53;;;;;;;4.45;2.63;;;;;;;;;;4942284;29;20023;-80
2023/05/02 14:47:19;;;;;;;5.85;3.08;;;;;;;;;;4942436;29;20075;-88
2023/05/02 14:49:45;;;;;;;6.07;4.18;;;;;;;;;;4933140;29;20028;-93
2023/05/02 14:52:12;;;;;;;5.97;3.50;;;;;;;;;;4940745;29;20023;-93
2023/05/02 14:54:38;;;;;;;4.78;2.38;;;;;;;;;;4939682;29;20443;-93
2023/05/02 14:57:04;;;;;;;5.00;2.50;;;;;;;;;;4943626;29;20419;-93
2023/05/02 14:59:30;;;;;;;2.88;2.58;;;;;;;;;;4940864;29;20263;-94
2023/05/02 15:01:57;;;;;;;4.78;2.60;;;;;;;;;;4940560;29;20407;-93
2023/05/02 15:04:24;;;;;;;9.38;2.85;;;;;;;;;;4939533;29;20038;-93
2023/05/02 15:06:53;;;;;;;7.72;2.63;;;;;;;;;;4940400;29;20028;-93
2023/05/02 15:09:19;;;;;;;4.88;3.17;;;;;;;;;;4939594;29;20036;-92
2023/05/02 15:11:45;;;;;;;5.40;3.15;;;;;;;;;;4940442;29;20035;-93
2023/05/02 15:14:11;;;;;;;3.13;2.83;;;;;;;;;;4940332;29;20099;-93
2023/05/02 15:16:38;;;;;;;7.57;2.30;;;;;;;;;;4927525;29;20331;-91
2023/05/02 15:19:04;;;;;;;6.18;2.05;;;;;;;;;;4949834;28;20024;-92
2023/05/02 15:21:31;;;;;;;6.43;2.78;;;;;;;;;;4935767;29;20042;-92
2023/05/02 15:23:57;;;;;;;4.65;3.05;;;;;;;;;;4940293;29;20023;-92
2023/05/02 15:26:24;;;;;;;6.28;2.00;;;;;;;;;;4941024;29;20130;-93
2023/05/02 15:28:51;;;;;;;3.47;2.00;;;;;;;;;;4942592;29;20038;-91
2023/05/02 15:31:17;;;;;;;9.00;2.30;;;;;;;;;;4959456;29;20038;-92